createdAt,value
2018-07-04T00:01:10.167Z,21.27
2018-07-04T00:03:49.901Z,19.77
2018-07-04T00:06:29.731Z,20.53
2018-07-04T00:09:09.559Z,19.43
2018-07-04T00:11:49.184Z,19.10
2018-07-04T00:14:29.001Z,19.43
2018-07-04T00:17:08.790Z,20.23
2018-07-04T00:19:48.391Z,19.43
2018-07-04T00:22:28.208Z,19.83
2018-07-04T00:25:07.832Z,20.30
2018-07-04T00:27:47.602Z,18.43
2018-07-04T00:30:27.363Z,19.57
2018-07-04T00:33:07.102Z,17.63
2018-07-04T00:35:46.779Z,18.27
2018-07-04T00:38:26.662Z,18.03
2018-07-04T00:41:06.131Z,18.07
2018-07-04T00:43:45.818Z,19.00
2018-07-04T00:46:25.370Z,17.57
2018-07-04T00:49:05.220Z,21.00
2018-07-04T00:51:44.960Z,20.27
2018-07-04T00:54:24.639Z,18.83
2018-07-04T00:57:04.410Z,18.37
2018-07-04T00:59:44.427Z,19.13
2018-07-04T01:02:24.370Z,19.10
2018-07-04T01:05:04.059Z,19.40
2018-07-04T01:07:43.807Z,19.30
2018-07-04T01:10:23.477Z,18.97
2018-07-04T01:13:03.248Z,19.07
2018-07-04T01:15:43.132Z,19.67
2018-07-04T01:18:22.882Z,19.93
2018-07-04T01:21:07.798Z,19.10
2018-07-04T01:23:47.694Z,18.17
2018-07-04T01:26:27.435Z,17.50
2018-07-04T01:29:07.544Z,18.63
2018-07-04T01:31:47.275Z,18.87
2018-07-04T01:34:27.039Z,17.43
2018-07-04T01:37:06.873Z,17.57
2018-07-04T01:39:46.640Z,18.40
2018-07-04T01:42:26.362Z,18.70
2018-07-04T01:45:06.308Z,19.10
2018-07-04T01:47:46.046Z,18.73
2018-07-04T01:50:25.823Z,19.63
2018-07-04T01:53:05.533Z,19.93
2018-07-04T01:55:45.272Z,19.20
2018-07-04T01:58:24.933Z,19.50
2018-07-04T02:01:04.590Z,19.70
2018-07-04T02:03:44.221Z,18.83
2018-07-04T02:06:25.098Z,19.63
2018-07-04T02:09:05.284Z,19.87
2018-07-04T02:11:45.567Z,19.37
2018-07-04T02:14:25.437Z,20.57
2018-07-04T02:17:05.347Z,19.67
2018-07-04T02:19:45.106Z,19.80
2018-07-04T02:22:24.791Z,20.77
2018-07-04T02:25:04.546Z,20.23
2018-07-04T02:27:44.421Z,22.00
2018-07-04T02:30:24.126Z,21.87
2018-07-04T02:33:04.045Z,22.70
2018-07-04T02:35:43.783Z,21.23
2018-07-04T02:38:23.528Z,23.13
2018-07-04T02:41:03.315Z,25.43
2018-07-04T02:43:43.118Z,21.13
2018-07-04T02:46:28.103Z,20.80
2018-07-04T02:49:07.762Z,21.83
2018-07-04T02:51:47.391Z,26.47
2018-07-04T02:54:27.132Z,21.70
2018-07-04T02:57:06.849Z,21.73
2018-07-04T02:59:46.507Z,21.53
2018-07-04T03:02:26.230Z,22.40
2018-07-04T03:05:05.917Z,22.87
2018-07-04T03:07:45.748Z,22.20
2018-07-04T03:10:25.576Z,22.80
2018-07-04T03:13:05.323Z,22.90
2018-07-04T03:15:44.980Z,22.73
2018-07-04T03:18:24.547Z,21.50
2018-07-04T03:21:04.247Z,22.60
2018-07-04T03:23:44.347Z,22.27
2018-07-04T03:26:24.047Z,23.73
2018-07-04T03:29:03.653Z,23.10
2018-07-04T03:31:43.428Z,21.23
2018-07-04T03:34:23.148Z,23.63
2018-07-04T03:37:02.900Z,22.90
2018-07-04T03:39:42.570Z,23.43
2018-07-04T03:42:22.500Z,22.07
2018-07-04T03:45:02.253Z,23.87
2018-07-04T03:47:42.042Z,25.10
2018-07-04T03:50:21.624Z,23.17
2018-07-04T03:53:01.419Z,21.40
2018-07-04T03:55:41.019Z,23.33
2018-07-04T03:58:21.004Z,23.60
2018-07-04T04:01:00.862Z,23.97
2018-07-04T04:03:40.691Z,22.57
2018-07-04T04:06:20.511Z,24.33
2018-07-04T04:09:00.135Z,23.27
2018-07-04T04:11:39.779Z,23.97
2018-07-04T04:14:19.371Z,23.70
2018-07-04T04:16:58.974Z,23.43
2018-07-04T04:19:38.690Z,23.67
2018-07-04T04:22:18.353Z,24.03
2018-07-04T04:24:58.044Z,26.30
2018-07-04T04:27:37.662Z,23.20
2018-07-04T04:30:17.566Z,22.03
2018-07-04T04:32:57.940Z,25.57
2018-07-04T04:35:37.594Z,20.90
2018-07-04T04:38:17.239Z,22.17
2018-07-04T04:40:56.896Z,22.50
2018-07-04T04:43:36.537Z,26.03
2018-07-04T04:46:16.635Z,22.37
2018-07-04T04:48:56.369Z,22.23
2018-07-04T04:51:36.083Z,22.03
2018-07-04T04:54:15.882Z,22.50
2018-07-04T04:56:55.584Z,24.17
2018-07-04T04:59:35.385Z,24.17
2018-07-04T05:02:15.165Z,22.37
2018-07-04T05:04:55.372Z,21.70
2018-07-04T05:07:34.988Z,22.63
2018-07-04T05:10:14.756Z,22.47
2018-07-04T05:12:54.668Z,22.77
2018-07-04T05:15:34.507Z,22.23
2018-07-04T05:18:14.163Z,23.63
2018-07-04T05:20:53.755Z,22.23
2018-07-04T05:23:33.433Z,22.27
2018-07-04T05:26:13.167Z,22.53
2018-07-04T05:28:53.081Z,24.13
2018-07-04T05:31:32.778Z,25.47
2018-07-04T05:34:12.445Z,27.47
2018-07-04T05:36:52.129Z,26.47
2018-07-04T05:39:31.727Z,30.43
2018-07-04T05:42:11.732Z,25.43
2018-07-04T05:44:51.514Z,23.43
2018-07-04T05:47:31.149Z,26.93
2018-07-04T05:50:10.771Z,24.00
2018-07-04T05:52:50.518Z,31.10
2018-07-04T05:55:30.282Z,25.17
2018-07-04T05:58:10.020Z,28.07
2018-07-04T06:00:49.928Z,29.20
2018-07-04T06:03:29.631Z,26.77
2018-07-04T06:06:09.993Z,25.73
2018-07-04T06:08:49.743Z,25.20
2018-07-04T06:11:29.632Z,23.93
2018-07-04T06:14:09.422Z,25.67
2018-07-04T06:16:49.213Z,23.47
2018-07-04T06:19:28.891Z,22.40
2018-07-04T06:22:08.586Z,22.20
2018-07-04T06:24:48.819Z,21.23
2018-07-04T06:27:28.512Z,22.02
2018-07-04T06:30:08.259Z,23.05
2018-07-04T06:32:47.879Z,25.23
2018-07-04T06:35:27.684Z,23.07
2018-07-04T06:37:55.047Z,23.32
2018-07-04T06:40:22.397Z,23.12
2018-07-04T06:42:50.088Z,22.10
2018-07-04T06:45:17.718Z,22.13
2018-07-04T06:47:45.076Z,23.35
2018-07-04T06:50:12.455Z,25.65
2018-07-04T06:52:39.796Z,25.57
2018-07-04T06:55:07.160Z,23.83
2018-07-04T06:57:34.511Z,24.32
2018-07-04T07:00:01.859Z,21.65
2018-07-04T07:02:29.316Z,23.50
2018-07-04T07:05:09.062Z,21.95
2018-07-04T07:07:48.954Z,22.58
2018-07-04T07:10:28.574Z,21.50
2018-07-04T07:13:08.550Z,22.35
2018-07-04T07:15:48.272Z,21.90
2018-07-04T07:18:27.943Z,22.77
2018-07-04T07:21:08.242Z,20.48
2018-07-04T07:23:47.959Z,20.05
2018-07-04T07:26:27.621Z,20.23
2018-07-04T07:29:08.605Z,21.95
2018-07-04T07:31:48.340Z,18.55
2018-07-04T07:34:27.944Z,19.87
2018-07-04T07:37:07.847Z,18.45
2018-07-04T07:39:47.757Z,19.32
2018-07-04T07:42:27.356Z,18.77
2018-07-04T07:45:07.127Z,18.00
2018-07-04T07:47:46.818Z,18.48
2018-07-04T07:50:26.482Z,18.50
2018-07-04T07:53:06.165Z,19.82
2018-07-04T07:55:46.263Z,20.08
2018-07-04T07:58:26.093Z,22.22
2018-07-04T08:01:05.969Z,20.57
2018-07-04T08:03:45.694Z,20.70
2018-07-04T08:06:25.194Z,19.07
2018-07-04T08:09:05.295Z,19.92
2018-07-04T08:11:45.128Z,19.07
2018-07-04T08:14:24.850Z,17.75
2018-07-04T08:17:04.842Z,17.73
2018-07-04T08:19:44.705Z,20.85
2018-07-04T08:22:24.568Z,19.15
2018-07-04T08:25:04.285Z,20.35
2018-07-04T08:27:44.312Z,19.32
2018-07-04T08:30:24.264Z,20.20
2018-07-04T08:33:04.031Z,21.02
2018-07-04T08:35:43.806Z,26.17
2018-07-04T08:38:23.472Z,19.10
2018-07-04T08:41:03.200Z,19.87
2018-07-04T08:43:43.061Z,20.15
2018-07-04T08:46:22.913Z,18.85
2018-07-04T08:49:02.723Z,19.25
2018-07-04T08:51:42.392Z,19.85
2018-07-04T08:54:22.505Z,20.37
2018-07-04T08:57:02.935Z,20.95
2018-07-04T08:59:42.682Z,19.92
2018-07-04T09:02:22.504Z,19.55
2018-07-04T09:05:02.330Z,19.40
2018-07-04T09:07:42.680Z,20.10
2018-07-04T09:10:22.428Z,19.15
2018-07-04T09:13:02.486Z,22.05
2018-07-04T09:15:42.525Z,18.35
2018-07-04T09:18:22.367Z,19.82
2018-07-04T09:21:02.142Z,24.35
2018-07-04T09:23:42.067Z,20.60
2018-07-04T09:26:21.795Z,19.12
2018-07-04T09:29:01.870Z,21.62
2018-07-04T09:31:41.752Z,19.48
2018-07-04T09:34:21.519Z,20.43
2018-07-04T09:37:01.093Z,19.77
2018-07-04T09:39:40.953Z,20.00
2018-07-04T09:42:20.642Z,23.18
2018-07-04T09:45:00.283Z,21.93
2018-07-04T09:47:41.664Z,21.50
2018-07-04T09:50:22.137Z,19.52
2018-07-04T09:53:01.838Z,20.75
2018-07-04T09:55:41.768Z,19.52
2018-07-04T09:58:21.516Z,20.80
2018-07-04T10:01:06.520Z,24.85
2018-07-04T10:03:46.515Z,22.10
2018-07-04T10:06:26.250Z,22.13
2018-07-04T10:09:06.131Z,21.30
2018-07-04T10:11:45.840Z,21.62
2018-07-04T10:14:25.536Z,22.82
2018-07-04T10:17:05.624Z,23.77
2018-07-04T10:19:45.544Z,21.27
2018-07-04T10:22:25.336Z,21.37
2018-07-04T10:25:05.333Z,21.60
2018-07-04T10:33:26.539Z,21.20
2018-07-04T10:36:06.598Z,23.67
2018-07-04T10:38:46.763Z,22.55
2018-07-04T10:41:26.712Z,22.13
2018-07-04T10:44:06.501Z,20.62
2018-07-04T10:46:46.396Z,21.52
2018-07-04T10:49:27.059Z,20.40
2018-07-04T10:52:07.531Z,20.72
2018-07-04T10:54:47.344Z,21.45
2018-07-04T10:57:28.820Z,20.15
2018-07-04T11:00:08.998Z,21.68
2018-07-04T11:02:49.571Z,20.85
2018-07-04T11:05:29.714Z,19.12
2018-07-04T11:08:11.289Z,20.90
2018-07-04T11:10:51.851Z,21.17
2018-07-04T11:13:31.726Z,22.93
2018-07-04T11:16:11.581Z,20.72
2018-07-04T11:18:51.383Z,21.65
2018-07-04T11:21:31.344Z,20.95
2018-07-04T11:24:11.157Z,22.75
2018-07-04T11:26:51.263Z,21.73
2018-07-04T11:29:30.974Z,22.65
2018-07-04T11:32:10.883Z,21.30
2018-07-04T11:34:50.649Z,21.55
2018-07-04T11:37:30.545Z,21.48
2018-07-04T11:40:10.423Z,20.68
2018-07-04T11:42:50.611Z,21.90
2018-07-04T11:45:30.518Z,21.57
2018-07-04T11:47:57.964Z,21.57
2018-07-04T11:50:25.609Z,22.52
2018-07-04T11:52:52.981Z,21.05
2018-07-04T11:55:20.306Z,22.40
2018-07-04T11:57:47.712Z,21.30
2018-07-04T12:00:15.081Z,21.68
2018-07-04T12:02:42.655Z,22.93
2018-07-04T12:05:22.268Z,47.23
2018-07-04T12:07:49.689Z,21.07
2018-07-04T12:10:17.029Z,20.20
2018-07-04T12:12:44.447Z,20.65
2018-07-04T12:15:11.851Z,20.48
2018-07-04T12:17:39.344Z,19.35
2018-07-04T12:20:06.721Z,16.93
2018-07-04T12:22:34.085Z,16.67
2018-07-04T12:25:02.185Z,16.75
2018-07-04T12:27:29.610Z,17.23
2018-07-04T12:29:56.976Z,19.65
2018-07-04T12:32:24.353Z,18.57
2018-07-04T12:34:51.776Z,17.77
2018-07-04T12:37:19.199Z,19.77
2018-07-04T12:39:46.596Z,18.57
2018-07-04T12:42:14.623Z,22.10
2018-07-04T12:44:42.041Z,22.02
2018-07-04T12:47:09.499Z,19.85
2018-07-04T12:49:37.488Z,20.23
2018-07-04T12:52:04.884Z,20.45
2018-07-04T12:54:37.557Z,20.65
2018-07-04T12:57:17.468Z,19.60
2018-07-04T12:59:57.644Z,20.05
2018-07-04T13:02:37.517Z,18.87
2018-07-04T13:05:17.198Z,20.68
2018-07-04T13:07:56.960Z,20.80
2018-07-04T13:10:37.241Z,21.33
2018-07-04T13:13:17.877Z,22.17
2018-07-04T13:15:57.478Z,21.55
2018-07-04T13:18:37.241Z,20.12
2018-07-04T13:21:16.990Z,21.42
2018-07-04T13:23:56.808Z,21.30
2018-07-04T13:26:36.984Z,22.15
2018-07-04T13:29:16.591Z,22.15
2018-07-04T13:31:57.530Z,20.60
2018-07-04T13:34:37.390Z,20.57
2018-07-04T13:37:17.060Z,22.05
2018-07-04T13:39:56.842Z,20.90
2018-07-04T13:42:36.700Z,21.75
2018-07-04T13:45:16.251Z,22.93
2018-07-04T13:47:55.760Z,23.60
2018-07-04T13:50:35.468Z,20.40
2018-07-04T13:53:15.255Z,16.23
2018-07-04T13:55:55.144Z,15.53
2018-07-04T13:58:34.883Z,13.40
2018-07-04T14:01:14.400Z,14.07
2018-07-04T14:03:54.075Z,14.60
2018-07-04T14:06:33.691Z,18.60
2018-07-04T14:09:13.328Z,16.77
2018-07-04T14:11:52.943Z,15.85
2018-07-04T14:14:32.491Z,19.65
2018-07-04T14:17:12.159Z,15.85
2018-07-04T14:19:51.878Z,15.55
2018-07-04T14:22:31.525Z,15.53
2018-07-04T14:25:11.536Z,16.52
2018-07-04T14:27:51.215Z,14.63
2018-07-04T14:30:31.382Z,15.78
2018-07-04T14:33:11.390Z,15.40
2018-07-04T14:35:51.169Z,20.17
2018-07-04T14:38:30.763Z,18.00
2018-07-04T14:41:10.624Z,14.07
2018-07-04T14:43:50.478Z,15.47
2018-07-04T14:46:30.115Z,11.60
2018-07-04T14:49:09.875Z,12.40
2018-07-04T14:51:49.518Z,11.83
2018-07-04T14:54:29.356Z,13.40
2018-07-04T14:57:09.095Z,11.37
2018-07-04T14:59:48.818Z,12.17
2018-07-04T15:02:28.696Z,11.53
2018-07-04T15:05:08.418Z,15.40
2018-07-04T15:07:48.147Z,13.53
2018-07-04T15:10:28.025Z,15.27
2018-07-04T15:13:07.798Z,16.13
2018-07-04T15:15:47.546Z,15.80
2018-07-04T15:18:27.282Z,15.23
2018-07-04T15:21:06.884Z,15.40
2018-07-04T15:23:46.437Z,16.30
2018-07-04T15:26:26.098Z,15.03
2018-07-04T15:29:05.715Z,18.97
2018-07-04T15:31:45.499Z,2.30
2018-07-04T15:34:25.331Z,3.67
2018-07-04T15:37:05.231Z,3.40
2018-07-04T15:39:44.905Z,4.33
2018-07-04T15:42:24.762Z,3.23
2018-07-04T15:45:04.374Z,4.03
2018-07-04T15:47:44.303Z,4.83
2018-07-04T15:50:24.224Z,3.40
2018-07-04T15:53:04.442Z,3.83
2018-07-04T15:55:44.295Z,2.83
2018-07-04T15:58:23.947Z,3.37
2018-07-04T16:01:03.836Z,3.60
2018-07-04T16:03:43.770Z,4.80
2018-07-04T16:06:23.560Z,3.60
2018-07-04T16:09:04.948Z,2.73
2018-07-04T16:11:44.795Z,5.17
2018-07-04T16:14:24.729Z,4.77
2018-07-04T16:17:04.905Z,4.27
2018-07-04T16:19:44.597Z,6.30
2018-07-04T16:22:24.331Z,5.30
2018-07-04T16:25:04.313Z,5.63
2018-07-04T16:27:44.105Z,6.67
2018-07-04T16:30:23.719Z,5.43
2018-07-04T16:33:03.403Z,5.17
2018-07-04T16:35:43.288Z,5.37
2018-07-04T16:38:22.958Z,5.23
2018-07-04T16:41:02.791Z,7.03
2018-07-04T16:43:42.970Z,3.93
2018-07-04T16:46:22.799Z,2.90
2018-07-04T16:49:02.516Z,3.97
2018-07-04T16:51:42.236Z,5.97
2018-07-04T16:54:22.035Z,4.73
2018-07-04T16:57:01.624Z,4.50
2018-07-04T16:59:41.316Z,5.07
2018-07-04T17:02:21.095Z,4.07
2018-07-04T17:05:01.009Z,6.10
2018-07-04T17:07:43.188Z,4.23
2018-07-04T17:10:41.360Z,3.73
2018-07-04T17:13:21.212Z,4.10
2018-07-04T17:16:01.119Z,4.87
2018-07-04T17:18:40.816Z,4.60
2018-07-04T17:21:20.531Z,3.50
2018-07-04T17:24:00.304Z,4.53
2018-07-04T17:26:40.149Z,3.57
2018-07-04T17:29:20.069Z,2.47
2018-07-04T17:32:00.088Z,6.07
2018-07-04T17:34:39.764Z,2.47
2018-07-04T17:37:19.566Z,2.20
2018-07-04T17:39:59.152Z,2.53
2018-07-04T17:42:39.019Z,6.67
2018-07-04T17:45:18.698Z,2.07
2018-07-04T17:47:58.504Z,1.93
2018-07-04T17:50:38.072Z,4.20
2018-07-04T17:53:19.220Z,2.83
2018-07-04T17:55:59.194Z,3.17
2018-07-04T17:58:38.924Z,3.57
2018-07-04T18:01:18.767Z,4.23
2018-07-04T18:03:58.781Z,3.97
2018-07-04T18:06:38.544Z,3.03
2018-07-04T18:09:18.354Z,2.70
2018-07-04T18:11:58.115Z,3.83
2018-07-04T18:14:37.762Z,3.83
2018-07-04T18:17:17.733Z,4.03
2018-07-04T18:19:57.462Z,3.00
2018-07-04T18:22:37.042Z,4.77
2018-07-04T18:25:16.764Z,6.73
2018-07-04T18:27:56.408Z,5.40
2018-07-04T18:30:36.186Z,2.47
2018-07-04T18:33:16.113Z,5.30
2018-07-04T18:35:55.876Z,10.73
2018-07-04T18:38:35.699Z,6.37
2018-07-04T18:41:15.637Z,3.97
2018-07-04T18:43:55.434Z,3.17
2018-07-04T18:46:35.257Z,4.37
2018-07-04T18:49:14.883Z,2.97
2018-07-04T18:51:57.990Z,2.93
2018-07-04T18:54:37.846Z,5.07
2018-07-04T18:57:27.277Z,6.03
2018-07-04T19:00:07.205Z,4.67
2018-07-04T19:02:46.844Z,3.33
2018-07-04T19:05:26.774Z,2.87
2018-07-04T19:08:06.498Z,3.73
2018-07-04T19:10:46.362Z,3.37
2018-07-04T19:13:26.169Z,3.67
2018-07-04T19:16:05.745Z,3.60
2018-07-04T19:18:45.495Z,4.90
2018-07-04T19:21:25.137Z,3.80
2018-07-04T19:24:05.144Z,8.10
2018-07-04T19:26:49.631Z,3.80
2018-07-04T19:29:29.522Z,6.20
2018-07-04T19:32:10.598Z,9.07
2018-07-04T19:34:50.356Z,7.40
2018-07-04T19:37:30.200Z,5.50
2018-07-04T19:40:09.978Z,3.80
2018-07-04T19:42:49.729Z,4.30
2018-07-04T19:45:29.506Z,4.67
2018-07-04T19:48:09.226Z,5.83
2018-07-04T19:50:48.976Z,7.77
2018-07-04T19:53:28.805Z,9.60
2018-07-04T19:56:08.659Z,6.67
2018-07-04T19:58:48.387Z,7.30
2018-07-04T20:01:28.303Z,5.33
2018-07-04T20:04:07.975Z,4.00
2018-07-04T20:06:47.617Z,5.80
2018-07-04T20:09:27.454Z,7.63
2018-07-04T20:12:07.185Z,4.73
2018-07-04T20:14:46.930Z,5.80
2018-07-04T20:17:26.780Z,4.07
2018-07-04T20:20:06.631Z,6.57
2018-07-04T20:22:46.760Z,5.60
2018-07-04T20:25:26.749Z,4.07
2018-07-04T20:28:06.383Z,6.10
2018-07-04T20:30:46.284Z,2.63
2018-07-04T20:33:25.961Z,4.27
2018-07-04T20:36:05.876Z,3.97
2018-07-04T20:38:45.664Z,2.60
2018-07-04T20:41:25.359Z,2.63
2018-07-04T20:44:05.256Z,4.40
2018-07-04T20:46:44.960Z,3.50
2018-07-04T20:49:24.947Z,4.00
2018-07-04T20:52:04.686Z,3.13
2018-07-04T20:54:44.493Z,3.67
2018-07-04T20:57:24.393Z,3.10
2018-07-04T21:00:04.257Z,5.87
2018-07-04T21:02:44.067Z,4.90
2018-07-04T21:05:23.862Z,6.57
2018-07-04T21:08:03.724Z,4.33
2018-07-04T21:10:43.631Z,3.73
2018-07-04T21:13:23.812Z,3.37
2018-07-04T21:16:03.709Z,3.53
2018-07-04T21:18:43.467Z,3.60
2018-07-04T21:21:23.197Z,4.90
2018-07-04T21:24:02.891Z,3.47
2018-07-04T21:26:42.729Z,3.17
2018-07-04T21:29:22.631Z,3.87
2018-07-04T21:32:02.477Z,4.07
2018-07-04T21:34:42.064Z,3.50
2018-07-04T21:37:21.820Z,3.70
2018-07-04T21:40:01.599Z,5.03
2018-07-04T21:42:41.360Z,3.33
2018-07-04T21:45:21.078Z,3.27
2018-07-04T21:48:00.758Z,3.10
2018-07-04T21:50:40.544Z,4.63
2018-07-04T21:53:20.379Z,5.70
2018-07-04T21:56:00.190Z,2.00
2018-07-04T21:58:39.804Z,6.13
2018-07-04T22:01:19.653Z,5.80
2018-07-04T22:03:59.642Z,2.07
2018-07-04T22:06:39.292Z,1.83
2018-07-04T22:09:19.072Z,3.70
2018-07-04T22:11:58.828Z,2.40
2018-07-04T22:14:38.401Z,4.70
2018-07-04T22:17:18.072Z,2.60
2018-07-04T22:19:57.676Z,5.50
2018-07-04T22:22:37.345Z,5.80
2018-07-04T22:25:17.296Z,2.13
2018-07-04T22:27:57.205Z,2.93
2018-07-04T22:30:37.087Z,5.20
2018-07-04T22:33:16.720Z,5.43
2018-07-04T22:35:56.624Z,4.90
2018-07-04T22:38:36.330Z,3.60
2018-07-04T22:41:16.027Z,1.60
2018-07-04T22:43:55.743Z,2.37
2018-07-04T22:46:35.692Z,3.03
2018-07-04T22:49:15.354Z,1.70
2018-07-04T22:51:55.362Z,1.90
2018-07-04T22:54:35.292Z,1.60
2018-07-04T22:57:15.080Z,1.87
2018-07-04T22:59:54.996Z,1.73
2018-07-04T23:02:34.796Z,2.13
2018-07-04T23:05:14.510Z,2.40
2018-07-04T23:07:54.346Z,2.37
2018-07-04T23:10:34.139Z,1.60
2018-07-04T23:13:13.895Z,2.97
2018-07-04T23:15:53.739Z,1.60
2018-07-04T23:18:33.432Z,2.90
2018-07-04T23:21:13.290Z,2.40
2018-07-04T23:23:52.995Z,1.00
2018-07-04T23:26:32.671Z,2.63
2018-07-04T23:29:12.477Z,2.27
2018-07-04T23:31:52.332Z,1.60
2018-07-04T23:34:32.082Z,2.20
2018-07-04T23:37:11.924Z,2.53
2018-07-04T23:39:51.579Z,1.70
2018-07-04T23:42:31.326Z,1.87
2018-07-04T23:45:10.902Z,1.80
2018-07-04T23:47:50.575Z,5.80
2018-07-04T23:50:30.430Z,1.13
2018-07-04T23:53:10.135Z,1.27
2018-07-04T23:55:49.962Z,1.13
2018-07-04T23:58:29.559Z,1.20
